Time;durP1;ratioP1;P1;durP2;ratioP2;P2;SDS_P1;SDS_P2;PMS_P1;PMS_P2;Temp;Humidity;BMP_temperature;BMP_pressure;BME280_temperature;BME280_humidity;BME280_pressure;Samples;Min_cycle;Max_cycle;Signal;HPM_P1;HPM_P2
2024/04/03 00:01:17;;;;;;;9.13;2.22;;;;;;;12.71;100.00;100682.44;5272905;28;20110;-78
2024/04/03 00:03:48;;;;;;;9.40;2.92;;;;;;;12.65;100.00;100677.75;5270520;28;20362;-77
2024/04/03 00:06:19;;;;;;;14.30;2.80;;;;;;;12.63;100.00;100675.25;5271594;27;20432;-77
2024/04/03 00:08:49;;;;;;;7.20;2.28;;;;;;;12.64;100.00;100678.78;5276877;28;20082;-78
2024/04/03 00:11:20;;;;;;;9.43;2.05;;;;;;;12.64;100.00;100685.00;5277305;28;20114;-77
2024/04/03 00:13:50;;;;;;;13.63;2.42;;;;;;;12.64;100.00;100673.41;5271184;28;20028;-78
2024/04/03 00:16:21;;;;;;;8.25;2.38;;;;;;;12.62;100.00;100678.97;5273697;27;20046;-77
2024/04/03 00:18:51;;;;;;;8.75;2.72;;;;;;;12.58;100.00;100674.97;5271868;28;20035;-77
2024/04/03 00:21:22;;;;;;;13.13;2.30;;;;;;;12.59;100.00;100665.88;5271409;28;20037;-78
2024/04/03 00:23:54;;;;;;;7.80;2.05;;;;;;;12.59;100.00;100663.19;5271385;28;20023;-77
2024/04/03 00:26:24;;;;;;;7.88;2.00;;;;;;;12.65;100.00;100667.84;5270065;28;20076;-77
2024/04/03 00:28:55;;;;;;;12.38;2.60;;;;;;;12.67;100.00;100668.50;5267134;28;20031;-77
2024/04/03 00:31:25;;;;;;;13.30;2.60;;;;;;;12.66;100.00;100660.63;5274889;28;20051;-78
2024/04/03 00:33:56;;;;;;;5.15;1.63;;;;;;;12.48;100.00;100657.44;5272802;28;20023;-78
2024/04/03 00:36:26;;;;;;;8.20;2.85;;;;;;;12.37;100.00;100651.47;5270900;27;20024;-75
2024/04/03 00:38:57;;;;;;;14.00;2.60;;;;;;;12.42;100.00;100634.78;5272872;28;20023;-75
2024/04/03 00:41:29;;;;;;;6.05;2.65;;;;;;;12.58;100.00;100648.06;5274519;28;20541;-75
2024/04/03 00:44:00;;;;;;;12.27;2.60;;;;;;;12.54;100.00;100640.53;5276005;28;20108;-75
2024/04/03 00:46:30;;;;;;;10.10;2.50;;;;;;;12.55;100.00;100637.69;5269314;27;20019;-75
2024/04/03 00:49:02;;;;;;;9.80;2.17;;;;;;;12.62;100.00;100633.22;5271061;28;20024;-75
2024/04/03 00:51:35;;;;;;;17.77;2.78;;;;;;;12.58;100.00;100628.41;5274180;27;20058;-75
2024/04/03 00:54:06;;;;;;;7.80;2.38;;;;;;;12.61;100.00;100618.13;5279411;28;20035;-74
2024/04/03 00:56:36;;;;;;;10.38;2.08;;;;;;;12.61;100.00;100612.72;5274894;28;20059;-75
2024/04/03 00:59:07;;;;;;;13.55;2.67;;;;;;;12.66;100.00;100617.56;5271191;27;20016;-75
2024/04/03 01:01:38;;;;;;;17.95;2.90;;;;;;;12.68;100.00;100620.88;5273270;28;20107;-75
2024/04/03 01:04:08;;;;;;;12.38;2.53;;;;;;;12.63;100.00;100602.59;5282834;27;20106;-74
2024/04/03 01:06:39;;;;;;;8.20;2.53;;;;;;;12.56;100.00;100600.84;5271444;28;20055;-75
2024/04/03 01:09:10;;;;;;;10.90;2.13;;;;;;;12.42;100.00;100597.13;5280084;28;20027;-75
2024/04/03 01:11:40;;;;;;;18.10;3.17;;;;;;;12.53;100.00;100601.22;5272604;28;20030;-75
2024/04/03 01:14:11;;;;;;;11.88;2.83;;;;;;;12.52;100.00;100595.00;5278763;28;20042;-75
2024/04/03 01:16:43;;;;;;;11.23;2.30;;;;;;;12.58;100.00;100588.03;5275593;28;20068;-75
2024/04/03 01:19:14;;;;;;;13.25;3.10;;;;;;;12.54;100.00;100582.19;5277662;28;20562;-75
2024/04/03 01:21:44;;;;;;;9.45;2.33;;;;;;;12.54;100.00;100587.56;5274668;28;20115;-74
2024/04/03 01:24:20;;;;;;;14.75;2.50;;;;;;;12.49;100.00;100581.91;5272129;27;20050;-74
2024/04/03 01:26:50;;;;;;;10.32;2.20;;;;;;;12.45;100.00;100572.56;5279100;28;20024;-75
2024/04/03 01:29:22;;;;;;;11.88;2.38;;;;;;;12.41;100.00;100571.25;5274579;28;20020;-75
2024/04/03 01:31:53;;;;;;;11.18;2.55;;;;;;;12.44;100.00;100565.47;5277997;28;20077;-74
2024/04/03 01:34:23;;;;;;;7.97;2.60;;;;;;;12.44;100.00;100560.09;5277232;28;20019;-75
2024/04/03 01:36:54;;;;;;;14.13;3.25;;;;;;;12.35;100.00;100556.69;5277529;28;20036;-75
2024/04/03 01:39:25;;;;;;;11.43;2.42;;;;;;;12.34;100.00;100546.91;5276091;27;20019;-75
2024/04/03 01:41:55;;;;;;;8.57;2.63;;;;;;;12.40;100.00;100553.44;5275000;28;20106;-76
2024/04/03 01:44:26;;;;;;;15.50;3.17;;;;;;;12.39;100.00;100547.19;5278280;28;20077;-75
2024/04/03 01:46:56;;;;;;;5.53;2.30;;;;;;;12.38;100.00;100540.16;5266363;28;20023;-75
2024/04/03 01:49:27;;;;;;;7.97;2.05;;;;;;;12.35;100.00;100545.06;5265398;28;20028;-75
2024/04/03 01:51:58;;;;;;;9.35;2.80;;;;;;;12.34;100.00;100543.41;5272597;28;20474;-74
2024/04/03 01:54:30;;;;;;;9.68;2.38;;;;;;;12.34;100.00;100538.03;5269318;28;20125;-74
2024/04/03 01:57:00;;;;;;;12.10;2.67;;;;;;;12.33;100.00;100528.28;5275307;28;20035;-75
2024/04/03 01:59:31;;;;;;;9.80;2.63;;;;;;;12.34;100.00;100520.03;5276918;28;20069;-75
2024/04/03 02:02:02;;;;;;;12.57;2.72;;;;;;;12.32;100.00;100519.38;5276903;28;20103;-75
2024/04/03 02:04:33;;;;;;;12.15;2.65;;;;;;;12.34;100.00;100514.63;5275547;28;20055;-74
2024/04/03 02:07:03;;;;;;;8.40;2.20;;;;;;;12.33;100.00;100506.78;5271181;28;20027;-75
2024/04/03 02:09:35;;;;;;;15.85;3.00;;;;;;;12.32;100.00;100502.41;5264029;28;20027;-75
2024/04/03 02:12:06;;;;;;;11.18;2.50;;;;;;;12.32;100.00;100518.56;5269642;28;20512;-75
2024/04/03 02:14:37;;;;;;;10.07;2.90;;;;;;;12.29;100.00;100508.16;5273933;28;20482;-75
2024/04/03 02:17:08;;;;;;;10.45;2.83;;;;;;;12.16;100.00;100509.66;5269747;28;20026;-75
2024/04/03 02:19:38;;;;;;;8.95;2.38;;;;;;;12.26;100.00;100506.69;5281485;28;20027;-75
2024/04/03 02:22:09;;;;;;;13.27;3.97;;;;;;;12.28;100.00;100501.09;5271401;28;20020;-75
2024/04/03 02:24:40;;;;;;;13.45;2.78;;;;;;;12.27;100.00;100499.44;5271960;28;20012;-75
2024/04/03 02:27:11;;;;;;;12.00;3.25;;;;;;;12.29;100.00;100492.84;5271580;28;20055;-75
2024/04/03 02:29:42;;;;;;;10.38;2.83;;;;;;;12.23;100.00;100490.91;5265464;28;20039;-75
2024/04/03 02:32:13;;;;;;;9.57;2.67;;;;;;;12.24;100.00;100484.50;5274610;28;20024;-75
2024/04/03 02:34:43;;;;;;;15.82;2.50;;;;;;;12.26;100.00;100484.34;5273985;28;20571;-75
2024/04/03 02:37:14;;;;;;;15.18;3.13;;;;;;;12.27;100.00;100477.94;5267222;28;20023;-76
2024/04/03 02:39:45;;;;;;;16.80;2.75;;;;;;;12.21;100.00;100476.00;5275391;28;20111;-75
2024/04/03 02:42:16;;;;;;;15.40;2.90;;;;;;;12.18;100.00;100475.31;5270743;28;20068;-75
2024/04/03 02:44:47;;;;;;;15.25;2.72;;;;;;;12.14;100.00;100467.81;5270225;28;20016;-75
2024/04/03 02:47:17;;;;;;;9.73;2.47;;;;;;;12.21;100.00;100466.06;5274456;28;20020;-75
2024/04/03 02:49:48;;;;;;;11.48;3.22;;;;;;;12.19;100.00;100455.47;5278050;28;20030;-75
2024/04/03 02:52:18;;;;;;;10.07;2.50;;;;;;;12.21;100.00;100458.00;5273940;28;20039;-75
2024/04/03 02:54:49;;;;;;;10.48;2.78;;;;;;;12.22;100.00;100454.28;5274104;28;20019;-75
2024/04/03 02:57:19;;;;;;;12.00;2.72;;;;;;;12.21;100.00;100452.63;5256747;28;20035;-75
2024/04/03 02:59:50;;;;;;;11.23;2.47;;;;;;;12.25;100.00;100451.22;5273540;28;20100;-75
2024/04/03 03:02:21;;;;;;;11.32;2.78;;;;;;;12.22;100.00;100453.44;5270830;28;20029;-75
2024/04/03 03:04:57;;;;;;;13.20;2.60;;;;;;;12.22;100.00;100446.22;5265312;28;20039;-75
2024/04/03 03:07:28;;;;;;;12.35;2.90;;;;;;;12.16;100.00;100442.41;5277012;28;20037;-75
2024/04/03 03:10:02;;;;;;;8.45;2.72;;;;;;;12.18;100.00;100432.28;5277837;28;20150;-75
2024/04/03 03:12:35;;;;;;;14.13;2.78;;;;;;;12.10;100.00;100431.59;5278370;28;20098;-75
2024/04/03 03:15:07;;;;;;;11.60;2.42;;;;;;;12.09;100.00;100429.88;5267509;28;20107;-75
2024/04/03 03:17:38;;;;;;;7.88;2.60;;;;;;;12.13;100.00;100432.03;5276777;28;20024;-75
2024/04/03 03:20:11;;;;;;;10.27;2.47;;;;;;;12.08;100.00;100420.16;5276853;28;20027;-75
2024/04/03 03:22:42;;;;;;;10.98;2.65;;;;;;;12.06;100.00;100423.03;5276199;28;20074;-75
2024/04/03 03:25:13;;;;;;;10.60;2.88;;;;;;;12.10;100.00;100415.44;5274102;28;20020;-75
2024/04/03 03:27:49;;;;;;;11.88;3.33;;;;;;;12.02;100.00;100418.22;5271691;28;20061;-75
2024/04/03 03:30:20;;;;;;;14.20;3.08;;;;;;;12.01;100.00;100411.19;5277529;27;20435;-75
2024/04/03 03:33:02;;;;;;;11.65;2.63;;;;;;;11.93;100.00;100409.41;5272345;28;20028;-75
2024/04/03 03:35:35;;;;;;;13.45;2.55;;;;;;;12.05;100.00;100399.88;5273752;28;20026;-75
2024/04/03 03:38:12;;;;;;;13.30;2.80;;;;;;;12.05;100.00;100393.63;5279268;28;20030;-75
2024/04/03 03:40:43;;;;;;;14.45;3.20;;;;;;;12.02;100.00;100394.84;5272699;28;20024;-75
2024/04/03 03:43:16;;;;;;;10.15;2.50;;;;;;;12.05;100.00;100391.81;5279128;28;20028;-75
2024/04/03 03:45:49;;;;;;;16.08;2.60;;;;;;;12.10;100.00;100386.72;5268389;28;20022;-75
2024/04/03 03:52:35;;;;;;;19.38;2.97;;;;;;;12.07;100.00;100389.75;5277861;27;20610;-75
2024/04/03 03:54:02;;;;;;;11.30;2.80;;;;;;;12.03;100.00;100388.47;5274404;28;20095;-75
2024/04/03 03:56:40;;;;;;;18.58;3.17;;;;;;;11.90;100.00;100375.69;5274371;28;20047;-75
2024/04/03 03:59:13;;;;;;;8.73;2.70;;;;;;;12.00;100.00;100375.41;5271020;28;20032;-75
2024/04/03 04:01:46;;;;;;;15.73;2.50;;;;;;;12.08;100.00;100377.16;5277939;28;20504;-74
2024/04/03 04:04:20;;;;;;;9.27;2.47;;;;;;;11.92;100.00;100372.81;5277050;28;20035;-75
2024/04/03 04:06:51;;;;;;;10.50;2.22;;;;;;;11.99;100.00;100365.66;5270924;28;20024;-75
2024/04/03 04:09:24;;;;;;;8.55;2.33;;;;;;;12.05;100.00;100369.44;5274074;28;20039;-75
2024/04/03 04:11:55;;;;;;;10.85;2.70;;;;;;;12.00;100.00;100364.66;5277085;28;20020;-75
2024/04/03 04:14:26;;;;;;;6.88;1.90;;;;;;;12.05;100.00;100367.63;5281225;28;20027;-75
2024/04/03 04:16:57;;;;;;;15.07;2.70;;;;;;;12.07;100.00;100360.19;5268753;28;20019;-75
2024/04/03 04:19:28;;;;;;;11.65;2.25;;;;;;;12.12;100.00;100357.75;5277871;28;20032;-75
2024/04/03 04:22:03;;;;;;;11.57;2.30;;;;;;;12.01;100.00;100350.19;5275976;28;20055;-75
2024/04/03 04:24:36;;;;;;;14.93;2.45;;;;;;;12.14;100.00;100355.69;5274616;28;20048;-75
2024/04/03 04:27:07;;;;;;;10.10;2.05;;;;;;;12.15;100.00;100343.13;5266708;28;20019;-75
2024/04/03 04:29:40;;;;;;;10.05;2.60;;;;;;;12.18;100.00;100354.31;5273793;28;20020;-75
2024/04/03 04:32:11;;;;;;;10.80;2.20;;;;;;;12.18;100.00;100346.25;5276787;28;20024;-73
2024/04/03 04:34:42;;;;;;;9.73;1.92;;;;;;;12.12;100.00;100343.50;5271255;28;20548;-73
2024/04/03 04:37:12;;;;;;;5.72;1.70;;;;;;;12.08;100.00;100347.56;5273653;28;20030;-73
2024/04/03 04:39:43;;;;;;;11.20;2.20;;;;;;;12.09;100.00;100347.38;5271082;28;20024;-73
2024/04/03 04:42:14;;;;;;;6.00;2.17;;;;;;;12.08;100.00;100343.03;5277442;28;20028;-73
2024/04/03 04:44:44;;;;;;;13.85;2.30;;;;;;;12.05;100.00;100348.78;5277177;28;20373;-73
2024/04/03 04:47:15;;;;;;;4.97;1.77;;;;;;;12.00;100.00;100348.53;5267155;28;20023;-73
2024/04/03 04:49:45;;;;;;;10.43;2.00;;;;;;;12.03;100.00;100345.44;5278456;28;20032;-73
2024/04/03 04:52:16;;;;;;;10.27;2.70;;;;;;;12.02;100.00;100345.63;5278268;28;20031;-73
2024/04/03 04:54:46;;;;;;;9.85;1.95;;;;;;;11.90;100.00;100338.06;5275220;28;20024;-73
2024/04/03 04:57:17;;;;;;;5.10;1.88;;;;;;;12.01;100.00;100336.75;5269928;28;20111;-76
2024/04/03 04:59:47;;;;;;;7.07;2.22;;;;;;;12.02;100.00;100337.56;5276295;28;20568;-75
2024/04/03 05:02:18;;;;;;;11.43;1.80;;;;;;;11.98;100.00;100334.41;5280104;28;20031;-75
2024/04/03 05:04:48;;;;;;;10.80;1.98;;;;;;;11.83;100.00;100326.38;5273459;28;20486;-74
2024/04/03 05:07:19;;;;;;;6.22;2.03;;;;;;;11.95;100.00;100326.75;5272070;28;20028;-74
2024/04/03 05:09:49;;;;;;;7.55;1.70;;;;;;;11.94;100.00;100319.69;5270715;28;20028;-75
2024/04/03 05:12:20;;;;;;;11.85;2.17;;;;;;;11.90;100.00;100315.72;5277987;28;20034;-74
2024/04/03 05:14:50;;;;;;;10.80;2.30;;;;;;;11.93;100.00;100324.22;5278568;28;20015;-75
2024/04/03 05:17:21;;;;;;;7.85;1.63;;;;;;;12.05;100.00;100308.47;5275745;28;20019;-74
2024/04/03 05:19:51;;;;;;;10.77;1.70;;;;;;;12.05;100.00;100318.34;5275414;28;20035;-75
2024/04/03 05:22:22;;;;;;;5.95;1.60;;;;;;;12.00;100.00;100312.72;5273663;28;20069;-75
2024/04/03 05:24:52;;;;;;;4.50;1.95;;;;;;;12.09;100.00;100301.66;5276524;28;20024;-74
2024/04/03 05:27:23;;;;;;;8.77;2.05;;;;;;;12.11;100.00;100306.88;5277847;27;20148;-74
2024/04/03 05:29:53;;;;;;;7.30;2.05;;;;;;;12.10;100.00;100307.91;5269304;28;20130;-74
2024/04/03 05:32:24;;;;;;;6.68;1.40;;;;;;;12.06;100.00;100303.91;5279086;28;20016;-76
2024/04/03 05:34:54;;;;;;;16.40;2.75;;;;;;;11.99;100.00;100305.69;5273037;28;20027;-74
2024/04/03 05:37:25;;;;;;;4.00;1.50;;;;;;;12.04;100.00;100300.56;5277899;28;20100;-74
2024/04/03 05:39:55;;;;;;;8.73;1.80;;;;;;;12.06;100.00;100304.75;5283799;28;20024;-74
2024/04/03 05:42:26;;;;;;;3.75;1.25;;;;;;;12.05;100.00;100300.41;5277927;27;20028;-76
2024/04/03 05:44:57;;;;;;;3.55;1.60;;;;;;;12.11;100.00;100296.13;5285051;28;20024;-76
2024/04/03 05:47:28;;;;;;;3.08;1.35;;;;;;;12.13;100.00;100292.19;5265852;28;20481;-74
2024/04/03 05:50:05;;;;;;;5.68;2.42;;;;;;;12.22;100.00;100289.41;5282551;28;20023;-74
2024/04/03 05:52:36;;;;;;;5.68;1.38;;;;;;;12.15;100.00;100287.47;5280674;28;20030;-74
2024/04/03 05:55:08;;;;;;;8.18;1.58;;;;;;;12.14;100.00;100290.34;5280470;28;20047;-74
2024/04/03 05:57:38;;;;;;;6.72;1.50;;;;;;;12.19;100.00;100287.91;5274873;28;20034;-76
2024/04/03 06:00:09;;;;;;;5.47;1.70;;;;;;;12.23;100.00;100281.13;5280873;28;20369;-76
2024/04/03 06:02:40;;;;;;;6.07;1.88;;;;;;;12.26;100.00;100285.31;5282136;28;20028;-74
2024/04/03 06:05:10;;;;;;;5.90;1.50;;;;;;;12.35;100.00;100281.44;5275407;28;20412;-75
2024/04/03 06:07:42;;;;;;;5.32;1.50;;;;;;;12.32;100.00;100281.84;5273477;28;20019;-74
2024/04/03 06:10:13;;;;;;;6.15;2.05;;;;;;;12.31;100.00;100267.56;5270803;28;20031;-75
2024/04/03 06:12:43;;;;;;;8.50;1.30;;;;;;;12.36;100.00;100275.91;5278851;28;20028;-75
2024/04/03 06:15:14;;;;;;;5.10;1.70;;;;;;;12.37;100.00;100279.44;5277052;27;20323;-75
2024/04/03 06:17:44;;;;;;;6.68;1.40;;;;;;;12.28;100.00;100284.09;5273249;28;20028;-75
2024/04/03 06:20:15;;;;;;;9.73;1.80;;;;;;;12.35;100.00;100278.75;5281483;28;20024;-75
2024/04/03 06:22:48;;;;;;;6.70;1.60;;;;;;;12.35;100.00;100281.44;5274439;28;20031;-74
2024/04/03 06:25:20;;;;;;;7.40;1.70;;;;;;;12.48;100.00;100286.97;5280450;28;20031;-76
2024/04/03 06:27:50;;;;;;;7.63;1.77;;;;;;;12.39;100.00;100280.06;5278969;28;20031;-75
2024/04/03 06:30:21;;;;;;;8.23;1.65;;;;;;;12.33;100.00;100283.50;5273667;28;20054;-77
2024/04/03 06:32:52;;;;;;;6.72;1.75;;;;;;;12.29;100.00;100279.53;5276757;28;20024;-75
2024/04/03 06:35:24;;;;;;;7.90;2.80;;;;;;;12.29;100.00;100282.22;5271113;28;20040;-75
2024/04/03 06:37:54;;;;;;;8.02;1.77;;;;;;;12.34;100.00;100280.63;5277728;28;20059;-75
2024/04/03 06:40:25;;;;;;;6.35;1.80;;;;;;;12.33;100.00;100288.91;5282013;27;20130;-75
2024/04/03 06:42:56;;;;;;;8.00;1.90;;;;;;;12.31;100.00;100282.88;5276864;28;20023;-74
2024/04/03 06:45:27;;;;;;;4.60;1.42;;;;;;;12.18;100.00;100273.63;5275584;28;20374;-77
2024/04/03 06:47:58;;;;;;;9.23;2.13;;;;;;;12.12;100.00;100289.72;5275438;28;20034;-74
2024/04/03 06:50:28;;;;;;;5.10;1.65;;;;;;;12.08;100.00;100275.81;5277520;28;20027;-74
2024/04/03 06:53:00;;;;;;;3.95;1.50;;;;;;;12.21;100.00;100275.13;5283462;28;20445;-75
2024/04/03 06:55:30;;;;;;;11.23;1.63;;;;;;;12.38;100.00;100278.41;5271836;28;20047;-75
2024/04/03 06:58:01;;;;;;;8.00;1.80;;;;;;;12.23;100.00;100283.00;5276369;28;20034;-74
2024/04/03 07:00:35;;;;;;;5.30;1.42;;;;;;;12.42;100.00;100288.59;5280099;28;20517;-75
2024/04/03 07:03:06;;;;;;;3.60;1.45;;;;;;;12.34;100.00;100283.31;5278645;28;20024;-76
2024/04/03 07:05:37;;;;;;;6.22;1.88;;;;;;;12.44;100.00;100277.63;5270353;28;20077;-76
2024/04/03 07:08:08;;;;;;;9.70;2.22;;;;;;;12.53;100.00;100271.09;5275744;28;20024;-75
2024/04/03 07:10:40;;;;;;;4.65;1.80;;;;;;;12.57;100.00;100275.06;5278084;28;20024;-75
2024/04/03 07:13:11;;;;;;;11.93;1.70;;;;;;;12.57;100.00;100272.38;5278388;28;20046;-76
2024/04/03 07:15:46;;;;;;;3.30;1.80;;;;;;;12.58;100.00;100268.66;5279204;28;20008;-74
2024/04/03 07:18:18;;;;;;;5.93;1.75;;;;;;;12.64;100.00;100275.13;5277650;28;20073;-75
2024/04/03 07:20:53;;;;;;;2.95;1.40;;;;;;;12.70;100.00;100269.81;5277194;28;20393;-75
2024/04/03 07:23:27;;;;;;;8.45;1.52;;;;;;;12.66;100.00;100279.28;5276891;28;20026;-76
2024/04/03 07:25:59;;;;;;;4.55;1.60;;;;;;;12.77;100.00;100271.72;5276116;28;20022;-75
2024/04/03 07:28:29;;;;;;;4.28;1.52;;;;;;;12.75;100.00;100269.22;5275240;28;20055;-75
2024/04/03 07:31:00;;;;;;;7.35;1.60;;;;;;;12.84;100.00;100272.59;5275731;28;20062;-76
2024/04/03 07:33:30;;;;;;;2.92;1.60;;;;;;;12.91;100.00;100276.19;5279991;28;20031;-75
2024/04/03 07:36:01;;;;;;;5.60;1.40;;;;;;;12.97;100.00;100272.72;5279511;28;20015;-74
2024/04/03 07:38:32;;;;;;;4.22;1.48;;;;;;;13.01;100.00;100273.16;5276085;28;20034;-75
2024/04/03 07:41:02;;;;;;;5.25;1.52;;;;;;;13.14;100.00;100265.97;5279142;28;20073;-76
2024/04/03 07:43:33;;;;;;;4.65;1.77;;;;;;;13.18;100.00;100266.44;5273602;28;20030;-75
2024/04/03 07:46:03;;;;;;;9.75;1.90;;;;;;;13.31;100.00;100271.13;5277765;28;20093;-75
2024/04/03 07:48:34;;;;;;;7.93;1.80;;;;;;;13.49;100.00;100260.63;5279490;28;20023;-76
2024/04/03 07:51:05;;;;;;;4.35;1.48;;;;;;;13.30;100.00;100264.03;5276957;28;20485;-75
2024/04/03 07:53:35;;;;;;;3.38;1.45;;;;;;;13.42;100.00;100263.28;5277052;28;20424;-75
2024/04/03 07:56:06;;;;;;;8.35;1.80;;;;;;;13.57;100.00;100260.47;5283645;28;20091;-75
2024/04/03 07:58:36;;;;;;;4.15;1.20;;;;;;;13.59;100.00;100260.25;5260432;27;20056;-76
2024/04/03 08:01:07;;;;;;;3.55;1.25;;;;;;;13.59;100.00;100263.78;5284140;28;20016;-75
2024/04/03 08:03:38;;;;;;;5.75;2.20;;;;;;;13.61;100.00;100256.34;5273376;28;20032;-75
2024/04/03 08:06:08;;;;;;;3.08;1.05;;;;;;;13.76;100.00;100264.28;5281051;28;20595;-75
2024/04/03 08:08:40;;;;;;;1.98;0.90;;;;;;;13.86;100.00;100267.44;5272314;28;20036;-74
2024/04/03 08:11:11;;;;;;;5.07;1.23;;;;;;;13.76;100.00;100266.16;5278247;28;20426;-77
2024/04/03 08:13:41;;;;;;;2.65;1.10;;;;;;;13.67;100.00;100258.22;5280047;28;20020;-75
2024/04/03 08:16:11;;;;;;;2.80;0.93;;;;;;;13.82;100.00;100271.56;5275354;28;20465;-75
2024/04/03 08:18:44;;;;;;;3.63;1.30;;;;;;;13.72;100.00;100271.94;5278741;28;20039;-75
2024/04/03 08:21:14;;;;;;;3.80;0.98;;;;;;;13.72;100.00;100269.25;5274350;28;20043;-75
2024/04/03 08:23:45;;;;;;;3.50;1.15;;;;;;;13.79;100.00;100271.13;5270269;28;20105;-76
2024/04/03 08:26:15;;;;;;;3.33;1.15;;;;;;;13.71;100.00;100270.28;5268592;28;20019;-75
2024/04/03 08:28:46;;;;;;;2.83;1.42;;;;;;;13.71;100.00;100266.75;5270487;28;20473;-75
2024/04/03 08:31:17;;;;;;;1.50;0.90;;;;;;;13.78;100.00;100269.47;5263517;28;20020;-75
2024/04/03 08:33:48;;;;;;;2.35;0.88;;;;;;;13.92;100.00;100266.63;5263272;28;20036;-75
2024/04/03 08:36:18;;;;;;;4.90;1.00;;;;;;;13.88;100.00;100273.47;5262453;28;20020;-75
2024/04/03 08:38:49;;;;;;;2.65;1.10;;;;;;;13.86;100.00;100280.94;5264997;28;20058;-75
2024/04/03 08:41:19;;;;;;;1.70;0.70;;;;;;;13.79;100.00;100277.34;5273375;28;20032;-75
2024/04/03 08:43:51;;;;;;;2.20;0.82;;;;;;;13.72;100.00;100279.19;5266066;28;20554;-75
2024/04/03 08:46:22;;;;;;;1.77;0.73;;;;;;;13.73;100.00;100273.59;5261661;28;20081;-75
2024/04/03 08:48:53;;;;;;;3.10;0.95;;;;;;;13.70;100.00;100273.16;5265202;28;20435;-74
2024/04/03 08:51:26;;;;;;;8.10;0.73;;;;;;;13.76;100.00;100285.03;5275710;28;20026;-75
2024/04/03 08:54:03;;;;;;;2.22;0.80;;;;;;;13.89;100.00;100274.28;5265167;28;20103;-75
2024/04/03 08:56:34;;;;;;;2.55;1.00;;;;;;;13.74;100.00;100282.50;5266977;28;20092;-75
2024/04/03 08:59:05;;;;;;;2.75;0.98;;;;;;;13.66;100.00;100280.00;5268393;28;20036;-75
2024/04/03 09:01:35;;;;;;;4.43;0.82;;;;;;;13.92;100.00;100281.97;5267997;28;20024;-76
2024/04/03 09:04:06;;;;;;;3.03;0.90;;;;;;;13.97;100.00;100276.81;5272472;28;20085;-75
2024/04/03 09:06:38;;;;;;;1.60;0.63;;;;;;;14.00;100.00;100282.59;5269957;28;20020;-76
2024/04/03 09:09:23;;;;;;;1.40;0.80;;;;;;;13.82;100.00;100273.44;5263652;28;20377;-74
2024/04/03 09:12:03;;;;;;;1.77;0.68;;;;;;;13.81;100.00;100279.88;5266346;28;20028;-74
2024/04/03 09:14:34;;;;;;;2.80;0.88;;;;;;;13.85;100.00;100283.81;5275678;28;20024;-75
2024/04/03 09:17:05;;;;;;;3.03;1.10;;;;;;;13.63;100.00;100278.53;5271499;28;20023;-75
2024/04/03 09:19:36;;;;;;;2.63;0.90;;;;;;;13.76;100.00;100280.47;5281354;28;20023;-76
2024/04/03 09:22:06;;;;;;;2.35;0.90;;;;;;;13.59;100.00;100282.66;5279858;28;20455;-75
2024/04/03 09:24:38;;;;;;;0.80;0.80;;;;;;;13.62;100.00;100279.56;5275916;28;20024;-75
2024/04/03 09:27:10;;;;;;;3.85;1.27;;;;;;;13.70;100.00;100281.25;5259330;28;20027;-75
2024/04/03 09:29:50;;;;;;;3.35;0.80;;;;;;;13.77;100.00;100276.72;5268371;28;20042;-73
2024/04/03 09:32:21;;;;;;;4.57;1.10;;;;;;;13.70;100.00;100276.72;5268510;28;20110;-74
2024/04/03 09:34:53;;;;;;;5.53;1.20;;;;;;;13.58;100.00;100286.38;5275316;28;20616;-74
2024/04/03 09:37:24;;;;;;;3.10;0.70;;;;;;;13.53;100.00;100286.16;5275211;28;20115;-74
2024/04/03 09:39:54;;;;;;;1.58;0.77;;;;;;;13.65;100.00;100287.22;5274539;28;20044;-74
2024/04/03 09:42:27;;;;;;;2.60;0.82;;;;;;;13.60;100.00;100286.19;5268347;28;20028;-74
2024/04/03 09:44:58;;;;;;;0.75;0.50;;;;;;;13.61;100.00;100283.31;5280638;28;20027;-73
2024/04/03 09:47:31;;;;;;;2.60;0.63;;;;;;;13.40;100.00;100284.22;5265971;28;20059;-73
2024/04/03 09:50:02;;;;;;;2.78;0.70;;;;;;;13.50;100.00;100291.09;5267375;28;20436;-74
2024/04/03 09:52:33;;;;;;;1.63;0.60;;;;;;;13.41;100.00;100288.59;5266089;28;20541;-74
2024/04/03 09:55:04;;;;;;;0.98;0.47;;;;;;;13.61;100.00;100285.16;5268190;28;20103;-74
2024/04/03 09:57:34;;;;;;;0.90;0.50;;;;;;;13.63;100.00;100291.19;5273487;28;20020;-73
2024/04/03 10:00:06;;;;;;;1.05;0.70;;;;;;;13.67;100.00;100292.44;5267352;28;20032;-74
2024/04/03 10:02:47;;;;;;;5.80;0.60;;;;;;;13.69;100.00;100291.19;5267364;28;20603;-74
2024/04/03 10:05:40;;;;;;;1.05;0.60;;;;;;;13.58;100.00;100291.78;5267490;28;20065;-74
2024/04/03 10:08:12;;;;;;;3.83;0.60;;;;;;;13.54;100.00;100295.88;5271759;28;20026;-74
2024/04/03 10:10:45;;;;;;;2.08;0.60;;;;;;;13.45;100.00;100299.78;5274642;28;20024;-74
2024/04/03 10:13:22;;;;;;;2.13;0.80;;;;;;;13.58;100.00;100294.47;5271992;28;20064;-74
2024/04/03 10:16:01;;;;;;;1.27;0.55;;;;;;;13.56;100.00;100299.25;5274936;28;20012;-74
2024/04/03 10:18:39;;;;;;;2.22;0.68;;;;;;;13.58;100.00;100293.63;5267774;28;20077;-74
2024/04/03 10:21:10;;;;;;;1.10;0.47;;;;;;;13.69;100.00;100293.91;5266569;28;20070;-74
2024/04/03 10:23:43;;;;;;;2.47;0.73;;;;;;;13.72;100.00;100290.81;5267843;28;20099;-74
2024/04/03 10:26:19;;;;;;;1.60;0.80;;;;;;;13.77;100.00;100300.16;5266397;28;20150;-74
2024/04/03 10:28:53;;;;;;;3.38;0.80;;;;;;;13.81;100.00;100293.34;5274749;28;20058;-74
2024/04/03 10:31:29;;;;;;;3.42;0.85;;;;;;;13.83;100.00;100292.09;5272571;28;20019;-74
2024/04/03 10:34:01;;;;;;;1.55;0.63;;;;;;;13.69;100.00;100290.38;5275821;28;20028;-74
2024/04/03 10:36:36;;;;;;;1.08;0.60;;;;;;;13.83;100.00;100294.78;5273156;28;20038;-74
2024/04/03 10:39:07;;;;;;;1.15;0.63;;;;;;;13.78;100.00;100293.75;5266186;28;20354;-74
2024/04/03 10:41:42;;;;;;;1.20;0.65;;;;;;;13.80;100.00;100297.06;5269950;28;20024;-74
2024/04/03 10:44:13;;;;;;;1.98;0.65;;;;;;;13.73;100.00;100297.88;5271097;28;20028;-74
2024/04/03 10:46:44;;;;;;;0.90;0.63;;;;;;;13.84;100.00;100303.72;5272706;28;20753;-74
2024/04/03 10:49:15;;;;;;;3.08;0.60;;;;;;;13.84;100.00;100301.03;5281232;28;20035;-74
2024/04/03 10:51:52;;;;;;;0.93;0.80;;;;;;;13.86;100.00;100310.59;5276973;28;20085;-74
2024/04/03 10:54:26;;;;;;;2.05;0.60;;;;;;;13.85;100.00;100305.38;5271331;28;20355;-74
2024/04/03 10:57:11;;;;;;;2.30;1.10;;;;;;;13.92;100.00;100304.38;5268410;28;20070;-74
2024/04/03 10:59:47;;;;;;;1.75;1.00;;;;;;;13.92;100.00;100300.84;5276599;28;20072;-74
2024/04/03 11:02:19;;;;;;;2.70;0.90;;;;;;;13.95;100.00;100312.06;5277758;28;20023;-74
2024/04/03 11:04:53;;;;;;;1.90;1.05;;;;;;;13.97;100.00;100304.59;5275648;28;20024;-74
2024/04/03 11:07:24;;;;;;;1.77;1.27;;;;;;;13.99;100.00;100312.50;5268558;28;20035;-74
2024/04/03 11:09:55;;;;;;;2.38;1.25;;;;;;;14.10;100.00;100306.50;5279003;28;20088;-74
2024/04/03 11:12:28;;;;;;;1.77;1.00;;;;;;;14.21;100.00;100303.25;5276608;28;20034;-74
2024/04/03 11:15:01;;;;;;;3.13;1.30;;;;;;;14.54;100.00;100307.06;5276939;28;20027;-74
2024/04/03 11:17:33;;;;;;;3.45;1.30;;;;;;;14.79;100.00;100302.75;5274845;28;20031;-74
2024/04/03 11:20:07;;;;;;;2.67;1.58;;;;;;;15.06;100.00;100294.63;5279115;28;20034;-74
2024/04/03 11:22:41;;;;;;;2.53;1.00;;;;;;;15.23;100.00;100287.75;5268972;28;20058;-74
2024/04/03 11:25:14;;;;;;;2.38;1.00;;;;;;;15.43;100.00;100285.84;5267725;28;20129;-74
2024/04/03 11:27:45;;;;;;;4.03;1.20;;;;;;;15.24;100.00;100292.94;5276446;28;20504;-74
2024/04/03 11:30:18;;;;;;;5.40;1.08;;;;;;;15.43;100.00;100296.66;5275350;28;20027;-74
2024/04/03 11:32:50;;;;;;;1.60;0.82;;;;;;;15.61;100.00;100295.16;5271551;28;20106;-74
2024/04/03 11:35:29;;;;;;;2.25;0.75;;;;;;;15.52;100.00;100292.69;5274947;28;20019;-74
2024/04/03 11:38:05;;;;;;;1.42;0.80;;;;;;;15.65;100.00;100291.84;5274460;28;20031;-74